< Typhoon 197304 1973 Season Typhoon 197306 >
Typhoon 197305 (DOT)
General InformationTrack Information on Google Maps || Disaster Info.ResourceGoogle EarthGE AnimationAtom FeedGeoJSON
Detalied Best Track (Time Zone = UTC)
Year Month Day Hour Lat. Long. Pressure (hPa) Wind (kt) Class Image Chart
1973 7 12 00 14.1 112.0 1004 0 2 -- Chart
1973 7 12 06 14.5 112.4 1004 0 2 -- Chart
1973 7 12 12 14.8 112.7 1004 0 2 -- Chart
1973 7 12 18 15.1 113.1 1004 0 2 -- Chart
1973 7 13 00 15.4 113.5 1002 0 2 -- Chart
1973 7 13 06 15.7 114.2 1002 0 2 -- Chart
1973 7 13 12 15.8 114.6 1000 0 2 -- Chart
1973 7 13 18 16.2 114.9 1000 0 2 -- Chart
1973 7 14 00 16.7 114.9 998 0 2 -- Chart
1973 7 14 06 17.0 114.8 994 0 2 -- Chart
1973 7 14 12 17.5 114.6 990 0 2 -- Chart
1973 7 14 18 17.8 113.9 990 0 9 -- Chart
1973 7 15 00 17.5 113.8 990 0 9 -- Chart
1973 7 15 06 18.1 113.5 985 0 9 -- Chart
1973 7 15 12 18.6 113.5 980 0 9 -- Chart
1973 7 15 18 18.8 113.3 980 0 9 -- Chart
1973 7 16 00 19.4 113.2 980 0 9 -- Chart
1973 7 16 06 20.3 113.4 975 0 9 -- Chart
1973 7 16 12 20.8 113.7 975 0 9 -- Chart
1973 7 16 18 21.8 114.1 975 0 9 -- Chart
1973 7 17 00 22.5 114.2 980 0 9 -- Chart
1973 7 17 06 23.8 115.0 985 0 9 -- Chart
1973 7 17 12 25.0 116.2 990 0 2 -- Chart
1973 7 17 18 25.3 117.9 990 0 2 -- Chart
1973 7 18 00 26.2 118.8 990 0 2 -- Chart
1973 7 18 06 27.0 120.5 990 0 9 -- Chart
1973 7 18 12 27.4 122.5 988 0 9 -- Chart
1973 7 18 18 27.8 124.2 988 0 9 -- Chart
1973 7 19 00 28.2 125.7 990 0 9 -- Chart
1973 7 19 06 28.8 126.6 990 0 9 -- Chart
1973 7 19 12 29.8 127.0 992 0 9 -- Chart
1973 7 19 18 31.0 127.1 992 0 9 -- Chart
1973 7 20 00 32.7 127.0 992 0 9 -- Chart
1973 7 20 06 34.0 126.0 996 0 2 -- Chart
1973 7 20 12 36.0 125.0 998 0 2 -- Chart
1973 7 20 18 38.0 125.0 1000 0 2 -- Chart
1973 7 21 00 41.0 125.0 1000 0 2 -- Chart
Japan Meteorological Agency Best Track Data | Correction Date : 1989-06-01
< Typhoon 197304 1973 Season Typhoon 197306 >

Help